Time;durP1;ratioP1;P1;durP2;ratioP2;P2;SDS_P1;SDS_P2;PMS_P1;PMS_P2;Temp;Humidity;BMP_temperature;BMP_pressure;BME280_temperature;BME280_humidity;BME280_pressure;Samples;Min_cycle;Max_cycle;Signal;HPM_P1;HPM_P2
2022/01/13 00:02:13;;;;;;;31.25;8.98;;;;;;;-6.23;77.50;98459.59;5063404;28;20125;-67
2022/01/13 00:04:40;;;;;;;29.92;9.10;;;;;;;-6.48;77.35;98413.13;5063521;28;20110;-67
2022/01/13 00:07:07;;;;;;;19.05;8.00;;;;;;;-6.07;76.72;98464.34;5064563;28;20053;-67
2022/01/13 00:09:33;;;;;;;21.15;7.22;;;;;;;-7.13;76.66;98306.28;5064557;28;20052;-64
2022/01/13 00:12:00;;;;;;;21.65;7.82;;;;;;;-6.25;77.27;98472.47;5063060;28;20290;-68
2022/01/13 00:14:41;;;;;;;19.23;7.43;;;;;;;-6.26;77.57;98481.63;5064349;28;20514;-64
2022/01/13 00:20:09;;;;;;;18.23;5.90;;;;;;;-6.26;76.90;98473.53;5064295;28;20059;-63
2022/01/13 00:25:41;;;;;;;19.05;5.25;;;;;;;-7.60;77.72;98285.56;5064256;28;20057;-67
2022/01/13 00:28:20;;;;;;;27.33;8.35;;;;;;;-6.46;77.86;98476.50;5064302;28;20132;-63
2022/01/13 00:30:54;;;;;;;24.80;8.95;;;;;;;-6.47;78.26;98506.38;5063945;28;20056;-63
2022/01/13 00:33:24;;;;;;;21.88;7.60;;;;;;;-6.54;77.81;98484.06;5064188;28;20055;-67
2022/01/13 00:35:54;;;;;;;20.08;7.05;;;;;;;-6.44;76.91;98476.28;5062954;28;20443;-63
2022/01/13 00:38:21;;;;;;;22.50;6.72;;;;;;;-6.54;76.87;98481.38;5064368;28;20064;-67
2022/01/13 00:40:48;;;;;;;17.15;6.53;;;;;;;-6.58;77.15;98493.66;5062618;28;20051;-69
2022/01/13 00:43:14;;;;;;;20.33;5.63;;;;;;;-6.53;77.16;98485.72;5063753;28;20051;-64
2022/01/13 00:45:41;;;;;;;9.10;3.70;;;;;;;-6.69;78.26;98483.63;5064084;28;20053;-67
2022/01/13 00:48:08;;;;;;;10.93;4.60;;;;;;;-6.67;78.28;98481.56;5062430;28;20926;-68
2022/01/13 00:50:35;;;;;;;13.73;5.05;;;;;;;-7.31;78.51;98411.25;5063720;28;20057;-63
2022/01/13 00:53:03;;;;;;;10.23;3.67;;;;;;;-7.18;78.33;98435.31;5063862;28;20078;-64
2022/01/13 00:55:45;;;;;;;15.50;3.83;;;;;;;-7.17;78.51;98456.63;5063712;28;20799;-68
2022/01/13 00:58:13;;;;;;;15.38;4.18;;;;;;;-6.97;79.09;98494.13;5064099;28;20113;-69
2022/01/13 01:00:41;;;;;;;13.95;4.15;;;;;;;-6.95;79.49;98492.00;5079102;28;20060;-63
2022/01/13 01:03:08;;;;;;;16.00;4.93;;;;;;;-7.40;79.60;98434.94;5079039;28;20048;-67
2022/01/13 01:05:36;;;;;;;21.48;4.82;;;;;;;-6.90;79.36;98503.78;5063517;28;20056;-68
2022/01/13 01:08:04;;;;;;;13.98;5.03;;;;;;;-6.88;78.97;98498.16;5062982;28;20048;-63
2022/01/13 01:10:32;;;;;;;16.80;4.82;;;;;;;-6.91;79.66;98494.06;5063621;28;20538;-63
2022/01/13 01:12:58;;;;;;;11.98;4.03;;;;;;;-6.87;79.38;98506.00;5063852;28;20067;-68
2022/01/13 01:15:27;;;;;;;14.63;3.97;;;;;;;-6.98;79.32;98484.38;5062312;28;20052;-64
2022/01/13 01:18:01;;;;;;;13.73;4.28;;;;;;;-7.18;78.80;98464.94;5079296;28;20055;-64
2022/01/13 01:20:35;;;;;;;12.50;3.88;;;;;;;-7.02;79.83;98502.03;5062100;28;20056;-64
2022/01/13 01:23:13;;;;;;;13.57;4.30;;;;;;;-7.00;79.51;98529.56;5062499;28;20491;-68
2022/01/13 01:25:47;;;;;;;10.32;4.25;;;;;;;-6.98;79.49;98497.84;5063213;28;20060;-68
2022/01/13 01:28:21;;;;;;;11.88;3.58;;;;;;;-7.12;79.96;98488.25;5061581;28;20052;-64
2022/01/13 01:30:51;;;;;;;8.68;2.97;;;;;;;-7.11;80.08;98492.63;5063421;28;20435;-64
2022/01/13 01:33:20;;;;;;;15.52;5.03;;;;;;;-7.91;79.86;98354.56;5062149;28;20056;-68
2022/01/13 01:35:48;;;;;;;13.93;4.80;;;;;;;-7.06;79.55;98492.75;5061829;28;20055;-64
2022/01/13 01:38:15;;;;;;;11.07;4.38;;;;;;;-7.29;78.80;98462.97;5063962;28;20067;-64
2022/01/13 01:40:42;;;;;;;17.98;5.07;;;;;;;-7.14;79.64;98495.72;5063144;28;20064;-65
2022/01/13 01:43:08;;;;;;;13.45;5.65;;;;;;;-7.44;78.98;98449.88;5061774;28;20514;-64
2022/01/13 01:45:43;;;;;;;12.20;4.40;;;;;;;-7.20;78.79;98505.53;5061596;28;20048;-66
2022/01/13 01:48:11;;;;;;;16.50;4.72;;;;;;;-7.82;79.20;98413.44;5063264;28;20059;-65
2022/01/13 01:50:38;;;;;;;13.15;4.85;;;;;;;-7.44;80.22;98470.56;5061636;28;20059;-64
2022/01/13 01:53:06;;;;;;;14.32;4.88;;;;;;;-7.61;80.40;98450.66;5061450;28;20061;-65
2022/01/13 01:55:33;;;;;;;17.80;6.78;;;;;;;-7.12;80.13;98518.72;5063178;28;20048;-64
2022/01/13 01:58:00;;;;;;;19.95;6.40;;;;;;;-7.06;79.07;98500.81;5063339;28;20072;-67
2022/01/13 02:00:27;;;;;;;14.32;5.03;;;;;;;-7.21;80.43;98481.53;5062891;28;20053;-66
2022/01/13 02:02:55;;;;;;;18.08;5.75;;;;;;;-6.99;80.52;98506.97;5064016;28;20050;-66
2022/01/13 02:05:23;;;;;;;12.02;4.60;;;;;;;-7.04;80.37;98498.75;5063278;28;20052;-64
2022/01/13 02:07:50;;;;;;;10.90;3.83;;;;;;;-6.98;79.51;98506.75;5063150;28;20053;-67
2022/01/13 02:10:17;;;;;;;10.43;3.50;;;;;;;-7.16;79.41;98462.84;5062974;28;20053;-66
2022/01/13 02:12:48;;;;;;;17.00;5.28;;;;;;;-7.14;79.57;98476.88;5062910;28;20867;-66
2022/01/13 02:17:44;;;;;;;16.17;5.35;;;;;;;-7.41;79.37;98413.66;5063454;28;20059;-64
2022/01/13 02:20:17;;;;;;;15.30;4.72;;;;;;;-7.42;79.06;98436.19;5065559;28;20052;-63
2022/01/13 02:22:44;;;;;;;11.75;4.68;;;;;;;-6.99;79.74;98485.44;5067038;28;20068;-63
2022/01/13 02:25:16;;;;;;;17.20;6.47;;;;;;;-7.09;79.76;98460.91;5066766;28;20566;-63
2022/01/13 02:27:43;;;;;;;32.15;10.05;;;;;;;-6.89;79.67;98488.44;5066778;28;20060;-69
2022/01/13 02:30:10;;;;;;;29.33;9.50;;;;;;;-7.58;79.52;98389.19;5064871;28;20048;-67
2022/01/13 02:32:37;;;;;;;26.60;9.15;;;;;;;-6.83;79.53;98511.78;5065202;28;20059;-67
2022/01/13 02:35:05;;;;;;;26.30;8.95;;;;;;;-6.90;79.43;98489.47;5066425;28;20199;-66
2022/01/13 02:37:31;;;;;;;23.98;8.07;;;;;;;-6.81;79.24;98507.00;5066623;28;20061;-63
2022/01/13 02:39:58;;;;;;;23.13;9.68;;;;;;;-7.34;79.67;98449.38;5066587;28;20059;-66
2022/01/13 02:42:25;;;;;;;27.83;8.48;;;;;;;-7.12;79.82;98507.94;5065968;28;20044;-66
2022/01/13 02:45:02;;;;;;;15.63;6.57;;;;;;;-6.91;79.99;98514.75;5066278;28;20050;-67
2022/01/13 02:47:59;;;;;;;25.80;7.88;;;;;;;-6.90;79.56;98516.41;5065941;28;20053;-67
2022/01/13 02:50:23;;;;;;;29.27;8.48;;;;;;;-7.22;79.66;98464.56;5065747;28;20058;-66
2022/01/13 02:52:50;;;;;;;19.23;5.72;;;;;;;-7.09;79.96;98504.78;5065746;28;20060;-63
2022/01/13 02:55:16;;;;;;;13.73;4.60;;;;;;;-7.08;80.00;98492.97;5064347;28;20052;-63
2022/01/13 02:57:43;;;;;;;16.48;5.20;;;;;;;-7.19;80.24;98501.78;5064908;28;20048;-63
2022/01/13 03:00:14;;;;;;;13.30;4.47;;;;;;;-7.39;81.00;98479.63;5066201;28;20045;-66
2022/01/13 03:02:43;;;;;;;10.38;3.47;;;;;;;-7.20;81.21;98493.94;5066250;28;20454;-63
2022/01/13 03:05:13;;;;;;;9.63;4.03;;;;;;;-8.03;80.66;98353.63;5065774;28;20048;-66
2022/01/13 03:07:40;;;;;;;6.35;2.90;;;;;;;-7.32;80.71;98493.03;5064659;28;20068;-63
2022/01/13 03:10:08;;;;;;;11.38;3.90;;;;;;;-7.41;81.40;98481.72;5065772;28;20058;-67
2022/01/13 03:12:38;;;;;;;13.45;3.67;;;;;;;-7.45;81.24;98498.53;5066305;28;20060;-66
2022/01/13 03:15:05;;;;;;;19.10;4.93;;;;;;;-7.41;81.73;98503.25;5066322;28;20059;-66
2022/01/13 03:17:32;;;;;;;17.27;4.97;;;;;;;-7.33;80.88;98491.41;5064685;28;20048;-67
2022/01/13 03:19:59;;;;;;;18.83;5.68;;;;;;;-7.56;80.14;98472.34;5064289;28;20226;-64
2022/01/13 03:22:26;;;;;;;16.33;5.50;;;;;;;-7.56;80.54;98467.78;5064345;28;20124;-64
2022/01/13 03:24:52;;;;;;;12.52;4.75;;;;;;;-7.26;80.65;98489.44;5065638;28;20048;-67
2022/01/13 03:27:22;;;;;;;16.58;5.25;;;;;;;-7.31;80.99;98495.50;5063859;28;20046;-64
2022/01/13 03:29:49;;;;;;;18.13;5.82;;;;;;;-7.91;81.08;98405.66;5065410;28;20534;-66
2022/01/13 03:32:17;;;;;;;16.05;5.57;;;;;;;-7.21;80.84;98495.00;5064258;28;20593;-67
2022/01/13 03:34:44;;;;;;;14.85;4.53;;;;;;;-7.74;80.67;98410.47;5064303;28;20053;-64
2022/01/13 03:37:10;;;;;;;10.88;3.75;;;;;;;-7.04;80.16;98501.44;5065800;28;20095;-64
2022/01/13 03:39:37;;;;;;;12.60;4.32;;;;;;;-7.30;79.83;98474.81;5063959;28;20593;-64
2022/01/13 03:42:04;;;;;;;14.90;5.53;;;;;;;-7.06;80.07;98506.22;5065313;28;20049;-64
2022/01/13 03:44:31;;;;;;;12.38;4.50;;;;;;;-7.36;80.10;98468.44;5065223;28;20052;-65
2022/01/13 03:47:03;;;;;;;15.50;4.75;;;;;;;-9.95;80.39;98075.69;5064602;28;20135;-67
2022/01/13 03:49:32;;;;;;;14.70;4.75;;;;;;;-7.19;80.50;98511.75;5063674;28;20060;-67
2022/01/13 03:52:03;;;;;;;14.43;5.78;;;;;;;-7.14;80.20;98514.56;5063923;28;20054;-63
2022/01/13 03:54:32;;;;;;;11.68;4.68;;;;;;;-8.34;79.66;98334.91;5065276;28;20101;-67
2022/01/13 03:57:49;;;;;;;14.45;4.78;;;;;;;-7.32;80.63;98528.84;5065170;28;20048;-63
2022/01/13 04:00:40;;;;;;;19.98;6.47;;;;;;;-7.39;80.98;98527.22;5065054;28;20053;-64
2022/01/13 04:03:09;;;;;;;14.05;4.88;;;;;;;-7.41;80.75;98636.97;5065068;28;20186;-67
2022/01/13 04:06:09;;;;;;;28.48;10.60;;;;;;;-7.34;80.27;98524.72;5064895;28;20048;-67
2022/01/13 04:08:35;;;;;;;24.05;7.00;;;;;;;-7.98;80.56;98453.25;5064881;28;20066;-68
2022/01/13 04:11:06;;;;;;;21.67;5.68;;;;;;;-7.46;81.62;98521.91;5065111;28;20060;-64
2022/01/13 04:16:24;;;;;;;26.35;9.63;;;;;;;-7.61;81.75;98501.75;5064567;28;20062;-68
2022/01/13 04:18:52;;;;;;;20.02;9.55;;;;;;;-7.48;80.81;98517.81;5064676;28;20503;-64
2022/01/13 04:21:19;;;;;;;19.20;6.25;;;;;;;-7.45;80.62;98514.66;5063219;28;20060;-68
2022/01/13 04:23:46;;;;;;;14.13;4.22;;;;;;;-7.49;80.47;98521.53;5064439;28;20541;-65
2022/01/13 04:26:19;;;;;;;12.57;4.57;;;;;;;-7.48;80.48;98523.19;5064534;28;20049;-64
2022/01/13 04:28:49;;;;;;;17.20;6.38;;;;;;;-7.48;79.54;98528.56;5063583;28;20079;-69
2022/01/13 04:31:15;;;;;;;15.90;5.20;;;;;;;-8.18;79.99;98423.03;5064600;28;20048;-68
2022/01/13 04:33:42;;;;;;;18.67;5.85;;;;;;;-8.10;80.12;98428.13;5064656;28;20114;-67
2022/01/13 04:36:09;;;;;;;20.42;6.53;;;;;;;-7.49;81.02;98521.53;5064241;28;20054;-66
2022/01/13 04:38:36;;;;;;;19.25;6.05;;;;;;;-7.68;79.63;98503.69;5064136;28;20048;-68
2022/01/13 04:41:04;;;;;;;19.02;6.85;;;;;;;-8.26;79.52;98412.56;5061746;28;20060;-67
2022/01/13 04:43:32;;;;;;;25.40;8.23;;;;;;;-7.47;79.23;98546.34;5063777;28;20048;-68
2022/01/13 04:45:59;;;;;;;22.60;10.00;;;;;;;-8.04;80.04;98475.63;5064399;28;20125;-64
2022/01/13 04:48:26;;;;;;;26.02;9.95;;;;;;;-7.50;80.31;98552.16;5063955;28;20056;-68
2022/01/13 04:50:53;;;;;;;28.65;9.13;;;;;;;-7.46;80.63;98553.38;5063951;28;20052;-69
2022/01/13 04:53:20;;;;;;;38.47;13.77;;;;;;;-10.42;80.64;98057.44;5063990;28;20063;-68
2022/01/13 04:55:51;;;;;;;33.60;14.38;;;;;;;-8.33;81.51;98401.03;5063640;28;20060;-64
2022/01/13 04:58:21;;;;;;;39.92;15.55;;;;;;;-7.53;81.72;98517.63;5064248;28;20074;-63
2022/01/13 05:00:49;;;;;;;49.65;21.00;;;;;;;-7.53;81.67;98531.06;5079413;28;20048;-63
2022/01/13 05:03:16;;;;;;;71.03;22.52;;;;;;;-7.41;81.20;98546.28;5064514;28;20049;-69
2022/01/13 05:05:43;;;;;;;47.90;17.55;;;;;;;-7.74;80.76;98478.50;5062564;28;20060;-69
2022/01/13 05:08:09;;;;;;;41.53;17.02;;;;;;;-8.17;80.35;98427.34;5063568;28;20056;-64
2022/01/13 05:10:36;;;;;;;49.38;16.50;;;;;;;-7.26;80.58;98544.09;5063618;28;20049;-70
2022/01/13 05:13:08;;;;;;;41.85;16.63;;;;;;;-7.31;80.23;98537.72;5063954;28;20139;-69
2022/01/13 05:15:37;;;;;;;59.03;19.17;;;;;;;-7.62;79.42;98484.00;5063900;28;20052;-72
2022/01/13 05:18:16;;;;;;;53.88;19.50;;;;;;;-7.25;79.71;98543.06;5063640;28;20044;-69
2022/01/13 05:20:48;;;;;;;43.67;16.95;;;;;;;-8.00;79.55;98425.75;5063448;28;20053;-65
2022/01/13 05:23:16;;;;;;;30.30;14.15;;;;;;;-7.41;79.70;98522.06;5063392;28;20060;-71
2022/01/13 05:25:44;;;;;;;26.45;13.18;;;;;;;-7.87;79.38;98460.59;5063261;28;20056;-64
2022/01/13 05:28:11;;;;;;;30.50;10.85;;;;;;;-7.48;78.90;98533.94;5061971;28;20052;-69
2022/01/13 05:30:39;;;;;;;48.33;13.27;;;;;;;-7.52;78.51;98554.28;5063528;28;20054;-63
2022/01/13 05:33:05;;;;;;;59.70;17.38;;;;;;;-8.03;78.72;98488.00;5063049;28;20052;-63
2022/01/13 05:35:33;;;;;;;38.72;15.05;;;;;;;-8.45;78.27;98451.13;5061776;28;20075;-70
2022/01/13 05:37:59;;;;;;;29.15;11.45;;;;;;;-7.83;79.19;98536.28;5061977;28;20052;-68
2022/01/13 05:40:26;;;;;;;33.22;10.55;;;;;;;-7.74;80.67;98561.06;5062980;28;20052;-63
2022/01/13 05:42:53;;;;;;;36.50;8.85;;;;;;;-7.92;80.95;98565.28;5061728;28;20534;-68
2022/01/13 05:45:21;;;;;;;24.23;8.00;;;;;;;-7.69;80.29;98569.25;5061544;28;20131;-63
2022/01/13 05:47:49;;;;;;;16.70;6.20;;;;;;;-7.68;80.05;98581.69;5061265;28;20456;-63
2022/01/13 05:50:19;;;;;;;21.35;8.80;;;;;;;-7.59;80.25;98580.38;5062607;28;20434;-63
2022/01/13 05:52:46;;;;;;;22.65;10.25;;;;;;;-7.63;80.23;98579.97;5061370;28;20056;-63
2022/01/13 05:55:14;;;;;;;24.70;10.48;;;;;;;-7.71;80.18;98558.72;5067174;28;20048;-63
2022/01/13 05:57:40;;;;;;;27.05;10.65;;;;;;;-7.74;79.79;98550.28;5083220;28;20058;-63
2022/01/13 06:00:10;;;;;;;39.00;14.73;;;;;;;-7.59;79.97;98575.00;5081691;28;20052;-71
2022/01/13 06:02:38;;;;;;;46.40;17.13;;;;;;;-7.79;80.30;98542.06;5083237;28;20060;-70
2022/01/13 06:05:06;;;;;;;33.60;13.15;;;;;;;-7.70;80.47;98567.63;5081393;28;20109;-64
2022/01/13 06:07:33;;;;;;;50.70;16.65;;;;;;;-7.49;80.25;98578.03;5082930;28;20052;-65
2022/01/13 06:10:01;;;;;;;38.00;14.93;;;;;;;-8.14;79.74;98472.59;5083002;28;20052;-64
2022/01/13 06:12:36;;;;;;;43.83;14.63;;;;;;;-7.47;79.94;98568.69;5082721;28;20044;-65
2022/01/13 06:15:07;;;;;;;27.92;10.70;;;;;;;-7.32;79.56;98592.59;5083405;28;20052;-64
2022/01/13 06:17:34;;;;;;;20.42;9.23;;;;;;;-7.25;79.66;98615.72;5082134;28;20495;-64
2022/01/13 06:20:01;;;;;;;22.02;8.32;;;;;;;-7.34;78.86;98563.22;5083367;28;20538;-72
2022/01/13 06:22:28;;;;;;;26.77;10.30;;;;;;;-7.40;77.80;98520.22;5081069;28;20055;-64
2022/01/13 06:24:55;;;;;;;26.00;11.10;;;;;;;-7.44;77.64;98521.69;5082674;28;20055;-70
2022/01/13 06:27:22;;;;;;;38.20;11.57;;;;;;;-7.08;77.70;98548.72;5083250;28;20439;-64
2022/01/13 06:29:51;;;;;;;44.22;12.15;;;;;;;-6.82;76.83;98583.44;5081524;28;20064;-64
2022/01/13 06:32:19;;;;;;;35.08;15.07;;;;;;;-7.14;76.34;98536.09;5082763;28;20532;-63
2022/01/13 06:34:45;;;;;;;34.00;14.98;;;;;;;-6.72;75.94;98589.94;5083533;28;20060;-63
2022/01/13 06:37:13;;;;;;;48.67;16.67;;;;;;;-6.61;76.09;98591.09;5081039;28;20047;-69
2022/01/13 06:39:40;;;;;;;35.30;15.50;;;;;;;-6.48;77.17;98612.53;5081429;28;20472;-65
2022/01/13 06:42:08;;;;;;;31.50;13.35;;;;;;;-6.49;76.16;98600.06;5081439;28;20078;-64
2022/01/13 06:44:35;;;;;;;64.75;22.20;;;;;;;-9.53;75.69;98161.56;5080916;28;20066;-69
2022/01/13 06:47:03;;;;;;;70.95;25.05;;;;;;;-7.23;75.50;98440.56;5067705;28;20048;-63
2022/01/13 06:49:30;;;;;;;68.70;27.85;;;;;;;-6.44;75.48;98554.41;5078929;28;20052;-63
2022/01/13 06:51:57;;;;;;;44.40;17.88;;;;;;;-6.41;75.17;98510.84;5070903;28;20593;-63
2022/01/13 06:54:24;;;;;;;57.05;20.02;;;;;;;-7.67;76.32;98344.81;5063328;28;20438;-67
2022/01/13 06:56:52;;;;;;;48.30;18.55;;;;;;;-6.62;75.77;98457.44;5061930;28;20103;-66
2022/01/13 06:59:19;;;;;;;28.33;9.38;;;;;;;-5.51;75.02;98602.31;5060932;28;20056;-64
2022/01/13 07:01:47;;;;;;;30.02;9.70;;;;;;;-5.38;75.72;98612.09;5061870;28;20083;-64
2022/01/13 07:04:15;;;;;;;33.67;10.40;;;;;;;-5.17;75.14;98617.75;5074189;28;20520;-63
2022/01/13 07:06:44;;;;;;;53.25;17.98;;;;;;;-4.96;74.24;98628.03;5084704;28;20141;-63
2022/01/13 07:09:13;;;;;;;58.17;23.88;;;;;;;-4.89;73.35;98598.19;5082713;28;20056;-65
2022/01/13 07:11:40;;;;;;;62.70;24.75;;;;;;;-4.56;72.23;98713.84;5077362;28;20052;-63
2022/01/13 07:14:08;;;;;;;72.38;25.75;;;;;;;-4.84;71.55;98618.03;5083986;28;20047;-67
2022/01/13 07:16:35;;;;;;;65.90;28.17;;;;;;;-4.42;71.25;98597.13;5085421;28;20097;-63
2022/01/13 07:19:08;;;;;;;75.10;28.88;;;;;;;-7.39;70.44;98070.69;5072193;28;20048;-67
2022/01/13 07:21:35;;;;;;;;;;;;;;;-4.02;70.24;98602.56;5065140;28;20055;-67
2022/01/13 07:24:02;;;;;;;53.47;18.40;;;;;;;-3.83;70.00;98595.94;5063436;28;20019;-66
2022/01/13 07:26:29;;;;;;;30.85;13.18;;;;;;;-3.68;69.81;98612.47;5063304;28;20131;-65
2022/01/13 07:28:56;;;;;;;48.83;15.20;;;;;;;-3.67;69.54;98614.13;5072846;28;20067;-65
2022/01/13 07:31:23;;;;;;;26.50;11.45;;;;;;;-4.26;69.38;98495.50;5080650;28;20052;-66
2022/01/13 07:33:50;;;;;;;32.67;12.50;;;;;;;-3.89;69.59;98583.38;5074839;28;20059;-67
2022/01/13 07:36:17;;;;;;;43.67;16.05;;;;;;;-4.79;70.58;98507.38;5069178;28;20059;-62
2022/01/13 07:38:44;;;;;;;45.92;19.65;;;;;;;-4.43;70.61;98537.88;5074177;28;20135;-66
2022/01/13 07:41:11;;;;;;;44.08;17.58;;;;;;;-3.57;68.78;98627.84;5073143;28;20114;-60
2022/01/13 07:43:41;;;;;;;49.05;18.75;;;;;;;-4.03;68.97;98520.56;5065607;28;20522;-73
2022/01/13 07:46:08;;;;;;;69.38;27.90;;;;;;;-3.00;68.76;98617.78;5080221;28;20145;-68
2022/01/13 07:48:35;;;;;;;70.60;30.45;;;;;;;-3.99;67.80;98415.41;5074317;28;20105;-62
2022/01/13 07:51:02;;;;;;;67.47;28.50;;;;;;;-2.66;67.45;98589.59;5078887;28;20501;-65
2022/01/13 07:53:29;;;;;;;48.72;22.90;;;;;;;-2.07;64.65;98634.97;5065323;28;20051;-70
2022/01/13 07:55:56;;;;;;;47.60;21.25;;;;;;;-2.01;65.03;98637.47;5074379;28;20048;-62
2022/01/13 07:58:23;;;;;;;38.75;15.65;;;;;;;-2.09;64.85;98602.66;5083769;28;20052;-65
2022/01/13 08:00:50;;;;;;;34.63;13.88;;;;;;;-1.74;63.47;98632.94;5070049;28;20048;-70
2022/01/13 08:03:17;;;;;;;23.23;7.68;;;;;;;-4.75;64.46;98146.44;5068089;28;20048;-69
2022/01/13 08:05:43;;;;;;;30.52;9.60;;;;;;;-1.67;64.43;98611.88;5064734;28;20048;-69
2022/01/13 08:08:10;;;;;;;26.73;9.93;;;;;;;-1.68;63.60;98577.63;5076624;28;20510;-63
2022/01/13 08:10:37;;;;;;;25.40;10.63;;;;;;;-1.05;61.53;98630.44;5080108;28;20055;-61
2022/01/13 08:13:04;;;;;;;30.10;13.52;;;;;;;-0.94;61.56;98635.75;5064978;28;20063;-69
2022/01/13 08:15:31;;;;;;;36.75;13.15;;;;;;;-1.24;60.51;98566.66;5074146;28;20055;-66
2022/01/13 08:20:44;;;;;;;28.63;12.75;;;;;;;-1.16;59.75;98533.56;5073547;28;20063;-60
2022/01/13 08:23:12;;;;;;;48.08;19.73;;;;;;;-0.35;60.30;98620.16;5071038;28;20052;-64
2022/01/13 08:25:39;;;;;;;27.50;11.25;;;;;;;-0.65;58.72;98636.28;5077483;28;20051;-60
2022/01/13 08:28:06;;;;;;;26.55;10.65;;;;;;;-0.48;58.29;98636.94;5074117;28;20131;-61
2022/01/13 08:30:39;;;;;;;28.80;12.50;;;;;;;-3.13;58.50;98220.63;5077925;28;20048;-60
2022/01/13 08:33:06;;;;;;;29.27;11.68;;;;;;;-0.65;57.63;98587.31;5069235;28;20422;-69
2022/01/13 08:35:32;;;;;;;17.88;8.05;;;;;;;-2.16;54.96;98284.47;5045351;28;20056;-72
2022/01/13 08:38:06;;;;;;;18.42;7.70;;;;;;;0.07;55.64;98617.41;5048029;28;20052;-62
2022/01/13 08:40:34;;;;;;;17.70;6.80;;;;;;;-0.75;54.78;98445.75;5057793;28;20112;-63
2022/01/13 08:43:04;;;;;;;19.25;6.68;;;;;;;0.26;54.65;98556.75;5055885;28;20084;-64
2022/01/13 08:45:31;;;;;;;20.15;9.32;;;;;;;0.24;51.96;98591.63;5047968;28;20518;-69
2022/01/13 08:47:58;;;;;;;16.48;7.80;;;;;;;0.53;53.64;98644.63;5047047;28;20144;-68
2022/01/13 08:50:25;;;;;;;23.30;8.52;;;;;;;0.51;52.84;98565.00;5051552;28;20445;-67
2022/01/13 08:52:55;;;;;;;23.75;9.98;;;;;;;0.48;53.02;98551.91;5061042;28;20519;-62
2022/01/13 08:55:22;;;;;;;23.38;8.98;;;;;;;0.93;52.29;98622.91;5059521;28;20494;-71
2022/01/13 08:57:48;;;;;;;23.48;9.25;;;;;;;-0.03;53.13;98452.03;5048835;28;20076;-70
2022/01/13 09:00:15;;;;;;;14.02;6.53;;;;;;;-0.01;51.93;98463.50;5043917;28;20466;-72
2022/01/13 09:02:43;;;;;;;15.07;6.22;;;;;;;1.08;50.96;98598.38;5052078;28;20056;-64
2022/01/13 09:05:13;;;;;;;19.77;6.57;;;;;;;1.45;51.85;98615.31;5061663;28;20143;-64
2022/01/13 09:07:40;;;;;;;19.67;7.30;;;;;;;1.56;50.43;98622.41;5058245;28;20499;-66
2022/01/13 09:10:08;;;;;;;14.02;6.05;;;;;;;1.18;50.63;98521.16;5049834;28;20058;-63
2022/01/13 09:12:35;;;;;;;17.17;6.85;;;;;;;1.29;50.84;98501.78;5059039;28;20057;-71
2022/01/13 09:15:12;;;;;;;15.45;6.75;;;;;;;1.41;49.44;98526.03;5042418;28;20064;-64
2022/01/13 09:17:42;;;;;;;16.77;7.50;;;;;;;1.79;50.11;98609.31;5054759;28;20044;-62
2022/01/13 09:20:10;;;;;;;15.55;6.65;;;;;;;1.40;50.28;98508.03;5046375;28;20049;-63
2022/01/13 09:22:39;;;;;;;19.73;8.35;;;;;;;0.87;50.12;98435.78;5057953;28;20041;-67
2022/01/13 09:25:10;;;;;;;14.93;7.28;;;;;;;1.91;50.11;98601.63;5050529;28;20077;-66
2022/01/13 09:27:41;;;;;;;19.48;7.57;;;;;;;2.15;49.88;98640.91;5059262;28;20063;-66
2022/01/13 09:30:11;;;;;;;16.42;6.55;;;;;;;1.49;49.62;98500.91;5046741;28;20064;-64
2022/01/13 09:32:38;;;;;;;16.52;7.00;;;;;;;2.15;49.50;98591.72;5053928;28;20060;-61
2022/01/13 09:35:06;;;;;;;13.27;6.22;;;;;;;1.24;48.46;98449.94;5046065;28;20049;-66
2022/01/13 09:37:34;;;;;;;19.05;8.32;;;;;;;2.30;49.12;98599.84;5053573;28;20060;-65
2022/01/13 09:40:04;;;;;;;13.77;6.47;;;;;;;2.21;48.55;98591.44;5050930;28;20132;-67
2022/01/13 09:42:33;;;;;;;16.33;6.20;;;;;;;2.44;48.33;98574.38;5050019;28;20056;-72
2022/01/13 09:45:01;;;;;;;15.25;5.60;;;;;;;1.08;47.49;98341.91;5054791;28;20169;-64
2022/01/13 09:47:29;;;;;;;13.60;6.25;;;;;;;2.73;45.79;98578.06;5050684;28;20052;-72
2022/01/13 09:50:00;;;;;;;12.55;5.95;;;;;;;2.37;45.20;98573.03;5051095;28;20052;-62
2022/01/13 09:52:28;;;;;;;14.68;5.18;;;;;;;1.16;45.42;98341.34;5050524;28;20114;-64
2022/01/13 09:54:55;;;;;;;13.73;5.25;;;;;;;2.72;44.89;98542.75;5045982;28;20071;-63
2022/01/13 09:57:22;;;;;;;13.88;5.65;;;;;;;2.35;44.75;98466.69;5040853;28;20053;-70
2022/01/13 09:59:49;;;;;;;13.02;5.25;;;;;;;1.51;44.61;98313.91;5055790;28;20053;-63
2022/01/13 10:02:16;;;;;;;12.10;5.57;;;;;;;2.96;44.53;98538.22;5045770;28;20115;-65
2022/01/13 10:04:53;;;;;;;13.50;5.90;;;;;;;3.12;43.92;98531.53;5059978;28;20052;-62
2022/01/13 10:07:30;;;;;;;14.20;6.20;;;;;;;2.92;43.14;98527.00;5047781;28;20044;-64
2022/01/13 10:10:24;;;;;;;13.38;6.32;;;;;;;3.02;42.68;98528.84;5051401;28;20063;-63
2022/01/13 10:13:04;;;;;;;18.35;6.97;;;;;;;2.15;43.02;98400.41;5046515;28;20063;-66
2022/01/13 10:18:44;;;;;;;15.02;6.22;;;;;;;1.25;42.78;98260.53;5047685;28;20045;-63
2022/01/13 10:21:16;;;;;;;17.33;6.95;;;;;;;2.80;43.03;98427.22;5060016;28;20064;-63
2022/01/13 10:24:09;;;;;;;27.40;10.50;;;;;;;3.11;42.65;98461.47;5048396;28;20057;-68
2022/01/13 10:26:39;;;;;;;18.13;7.65;;;;;;;3.49;42.37;98492.56;5052158;28;20109;-65
2022/01/13 10:29:08;;;;;;;19.63;8.15;;;;;;;3.41;42.97;98436.50;5053495;28;20064;-67
2022/01/13 10:31:52;;;;;;;20.73;8.10;;;;;;;3.41;42.14;98397.34;5047716;28;20060;-64
2022/01/13 10:34:25;;;;;;;15.32;6.75;;;;;;;3.99;41.23;98492.00;5059392;28;20530;-65
2022/01/13 10:37:10;;;;;;;17.50;6.00;;;;;;;3.99;41.74;98475.56;5049227;28;20053;-66
2022/01/13 10:40:10;;;;;;;21.15;12.70;;;;;;;4.04;41.95;98490.03;5050999;28;20057;-64
2022/01/13 10:45:17;;;;;;;15.10;5.60;;;;;;;2.75;42.55;98408.94;5047545;28;20048;-65
2022/01/13 10:47:58;;;;;;;18.10;7.25;;;;;;;3.46;43.05;98488.50;5048678;28;20072;-64
2022/01/13 10:50:31;;;;;;;15.13;6.82;;;;;;;3.56;42.49;98471.13;5056144;28;20054;-63
2022/01/13 10:53:08;;;;;;;12.95;6.03;;;;;;;2.95;43.13;98323.13;5054340;28;20061;-64
2022/01/13 10:55:39;;;;;;;12.90;6.07;;;;;;;3.87;42.29;98443.06;5058772;28;20438;-66
2022/01/13 10:58:12;;;;;;;12.55;6.88;;;;;;;4.04;41.90;98443.44;5048351;28;20049;-63
2022/01/13 11:00:40;;;;;;;26.73;12.38;;;;;;;4.08;41.34;98441.72;5054764;28;20057;-66
2022/01/13 11:03:10;;;;;;;13.13;5.93;;;;;;;3.75;40.75;98387.88;5061497;28;20059;-66
2022/01/13 11:05:56;;;;;;;16.77;5.90;;;;;;;3.74;40.81;98435.59;5053190;28;20053;-65
2022/01/13 11:08:38;;;;;;;14.57;6.15;;;;;;;2.47;41.34;98250.31;5054377;28;20087;-63
2022/01/13 11:11:28;;;;;;;12.00;5.03;;;;;;;3.81;41.45;98418.78;5060578;28;20048;-65
2022/01/13 11:14:08;;;;;;;13.98;5.55;;;;;;;3.86;41.34;98422.28;5048154;28;20061;-68
2022/01/13 11:16:38;;;;;;;12.85;5.80;;;;;;;2.28;40.11;98175.59;5056503;28;20550;-64
2022/01/13 11:19:09;;;;;;;10.90;4.82;;;;;;;3.95;39.77;98425.97;5050092;28;20443;-65
2022/01/13 11:21:37;;;;;;;16.42;6.68;;;;;;;3.86;41.51;98397.59;5055074;28;20053;-68
2022/01/13 11:24:05;;;;;;;12.63;5.07;;;;;;;3.50;41.16;98385.47;5063769;28;20059;-64
2022/01/13 11:26:33;;;;;;;9.05;4.32;;;;;;;2.81;40.44;98383.16;5046348;28;20048;-63
2022/01/13 11:29:00;;;;;;;8.32;4.03;;;;;;;1.76;40.31;98151.78;5047910;28;20163;-71
2022/01/13 11:31:28;;;;;;;7.47;3.30;;;;;;;1.80;39.61;98152.03;5046793;28;20412;-68
2022/01/13 11:33:56;;;;;;;8.55;3.88;;;;;;;3.47;40.74;98402.47;5049839;28;20087;-65
2022/01/13 11:36:23;;;;;;;11.35;4.68;;;;;;;3.72;39.67;98404.09;5054214;28;20053;-64
2022/01/13 11:38:55;;;;;;;8.20;3.83;;;;;;;3.75;40.41;98401.59;5054323;28;20454;-65
2022/01/13 11:41:22;;;;;;;12.88;5.13;;;;;;;3.68;40.70;98362.78;5060114;28;20134;-65
2022/01/13 11:43:50;;;;;;;15.02;7.10;;;;;;;3.69;40.97;98334.25;5052974;28;20067;-70
2022/01/13 11:46:24;;;;;;;14.93;6.68;;;;;;;3.96;40.72;98378.28;5049431;28;20041;-67
2022/01/13 11:49:03;;;;;;;15.30;6.63;;;;;;;3.80;40.96;98385.09;5057056;28;20060;-62
2022/01/13 11:51:59;;;;;;;15.15;6.65;;;;;;;3.17;41.79;98308.91;5053107;28;20050;-67
2022/01/13 11:54:28;;;;;;;10.35;4.88;;;;;;;3.25;41.06;98383.00;5055983;28;20055;-62
2022/01/13 11:57:18;;;;;;;9.63;4.38;;;;;;;1.36;42.50;98217.59;5054793;28;20052;-65
2022/01/13 11:59:58;;;;;;;7.50;4.28;;;;;;;1.77;43.63;98390.22;5048593;28;20045;-61